Time;durP1;ratioP1;P1;durP2;ratioP2;P2;SDS_P1;SDS_P2;PMS_P1;PMS_P2;Temp;Humidity;BMP_temperature;BMP_pressure;BME280_temperature;BME280_humidity;BME280_pressure;Samples;Min_cycle;Max_cycle;Signal;HPM_P1;HPM_P2
2022/07/02 00:01:26;;;;;;;2.25;1.15;;;22.10;58.70;;;;;;5052185;28;20695;-68
2022/07/02 00:03:53;;;;;;;1.23;1.10;;;22.10;58.80;;;;;;5053955;28;20298;-69
2022/07/02 00:06:21;;;;;;;2.22;1.17;;;22.10;58.90;;;;;;5051955;28;20278;-68
2022/07/02 00:08:49;;;;;;;1.40;1.30;;;22.10;58.90;;;;;;5068785;28;20206;-68
2022/07/02 00:11:16;;;;;;;1.10;1.10;;;22.00;58.80;;;;;;5052050;28;20203;-68
2022/07/02 00:13:43;;;;;;;1.00;1.00;;;22.00;59.40;;;;;;5068698;28;20223;-68
2022/07/02 00:16:10;;;;;;;1.30;1.20;;;22.00;58.90;;;;;;5051997;28;20202;-68
2022/07/02 00:18:37;;;;;;;1.20;1.10;;;22.00;58.90;;;;;;5053223;28;20727;-68
2022/07/02 00:21:04;;;;;;;1.02;1.02;;;22.00;58.90;;;;;;5051896;28;20215;-68
2022/07/02 00:23:31;;;;;;;1.25;1.10;;;22.00;59.00;;;;;;5068621;28;20251;-68
2022/07/02 00:26:04;;;;;;;1.70;1.15;;;22.00;59.00;;;;;;5051862;28;20200;-68
2022/07/02 00:28:32;;;;;;;1.00;1.00;;;22.00;59.00;;;;;;5053447;28;20179;-68
2022/07/02 00:30:59;;;;;;;1.20;1.15;;;22.00;59.00;;;;;;5051949;28;20200;-68
2022/07/02 00:33:25;;;;;;;1.00;1.00;;;22.00;59.00;;;;;;5068557;28;20302;-68
2022/07/02 00:35:53;;;;;;;1.20;1.10;;;22.00;59.00;;;;;;5051825;28;20203;-68
2022/07/02 00:38:19;;;;;;;1.35;1.10;;;22.00;59.00;;;;;;5051748;28;20210;-68
2022/07/02 00:40:46;;;;;;;1.20;1.10;;;22.00;59.00;;;;;;5052848;28;20214;-69
2022/07/02 00:43:15;;;;;;;1.05;1.00;;;22.00;59.00;;;;;;5051808;28;20247;-68
2022/07/02 00:45:42;;;;;;;1.10;1.00;;;22.00;59.10;;;;;;5068728;28;20290;-68
2022/07/02 00:48:09;;;;;;;1.05;1.00;;;22.00;59.10;;;;;;5051635;28;20195;-68
2022/07/02 00:50:36;;;;;;;1.33;1.10;;;22.00;59.10;;;;;;5068379;28;20206;-68
2022/07/02 00:53:03;;;;;;;1.27;1.10;;;22.00;59.10;;;;;;5051532;28;20230;-68
2022/07/02 00:55:30;;;;;;;1.05;1.05;;;22.00;59.10;;;;;;5051605;28;20196;-68
2022/07/02 00:57:57;;;;;;;1.65;1.10;;;22.00;59.10;;;;;;5052937;28;20315;-68
2022/07/02 01:00:26;;;;;;;1.73;1.02;;;21.90;59.10;;;;;;5052969;28;20723;-68
2022/07/02 01:02:53;;;;;;;1.17;1.08;;;21.90;59.10;;;;;;5068086;28;20695;-69
2022/07/02 01:05:20;;;;;;;1.00;1.00;;;22.00;59.20;;;;;;5051606;28;20679;-68
2022/07/02 01:10:16;;;;;;;1.38;1.10;;;21.90;59.10;;;;;;5051510;28;20632;-68
2022/07/02 01:10:35;;;;;;;0.95;0.95;;;21.90;59.10;;;;;;5052724;28;20554;-69
2022/07/02 01:13:02;;;;;;;0.98;0.98;;;21.90;59.10;;;;;;5068390;28;20234;-68
2022/07/02 01:15:30;;;;;;;1.58;1.00;;;22.00;59.20;;;;;;5051460;28;20204;-70
2022/07/02 01:17:57;;;;;;;1.10;1.00;;;21.90;59.10;;;;;;5053146;28;20218;-68
2022/07/02 01:20:26;;;;;;;1.25;1.10;;;21.90;59.10;;;;;;5054985;28;20273;-68
2022/07/02 01:22:54;;;;;;;1.30;1.20;;;21.90;59.10;;;;;;5071483;28;20249;-68
2022/07/02 01:25:22;;;;;;;0.93;0.93;;;21.90;59.10;;;;;;5054950;28;20238;-68
2022/07/02 01:27:49;;;;;;;1.20;1.10;;;21.90;59.20;;;;;;5054805;28;20201;-69
2022/07/02 01:30:16;;;;;;;1.00;1.00;;;21.90;59.10;;;;;;5055935;28;20194;-68
2022/07/02 01:32:43;;;;;;;1.00;1.00;;;21.90;59.10;;;;;;5054634;28;20215;-68
2022/07/02 01:35:10;;;;;;;1.40;1.17;;;21.90;59.20;;;;;;5054858;28;20628;-68
2022/07/02 01:37:38;;;;;;;0.90;0.90;;;21.90;59.20;;;;;;5056239;28;20274;-68
2022/07/02 01:40:07;;;;;;;1.00;1.00;;;21.90;59.20;;;;;;5055961;28;20198;-68
2022/07/02 01:42:36;;;;;;;1.02;1.02;;;21.90;59.20;;;;;;5055688;28;20222;-68
2022/07/02 01:45:03;;;;;;;1.15;1.05;;;21.90;59.20;;;;;;5054771;28;20660;-68
2022/07/02 01:47:30;;;;;;;1.20;1.10;;;21.90;59.20;;;;;;5054539;28;20282;-68
2022/07/02 01:49:57;;;;;;;1.10;1.10;;;21.90;59.20;;;;;;5054351;28;20195;-69
2022/07/02 01:52:26;;;;;;;1.10;1.10;;;21.90;59.20;;;;;;5055753;28;20211;-68
2022/07/02 01:54:53;;;;;;;1.08;1.08;;;21.90;59.20;;;;;;5071152;28;20199;-67
2022/07/02 01:57:21;;;;;;;0.80;0.80;;;21.90;59.20;;;;;;5055530;28;20192;-68
2022/07/02 01:59:48;;;;;;;1.30;1.13;;;21.90;59.30;;;;;;5054366;28;20627;-68
2022/07/02 02:02:15;;;;;;;1.10;1.00;;;21.80;59.10;;;;;;5056019;28;20286;-68
2022/07/02 02:04:42;;;;;;;0.90;0.90;;;21.80;59.10;;;;;;5054187;28;20226;-68
2022/07/02 02:07:19;;;;;;;;;;;;;;;;;;;;;
2022/07/02 02:09:51;;;;;;;1.38;0.98;;;21.80;59.20;;;;;;5054553;28;20191;-68
2022/07/02 02:12:21;;;;;;;0.98;0.98;;;21.80;59.20;;;;;;5053885;28;20198;-68
2022/07/02 02:14:48;;;;;;;1.10;1.00;;;21.80;59.20;;;;;;5053959;28;20227;-68
2022/07/02 02:17:15;;;;;;;1.23;1.13;;;21.80;59.20;;;;;;5070887;28;20199;-68
2022/07/02 02:19:42;;;;;;;1.00;1.00;;;21.80;59.20;;;;;;5054307;28;20213;-68
2022/07/02 02:22:09;;;;;;;1.13;1.00;;;21.80;59.20;;;;;;5055112;28;20211;-68
2022/07/02 02:24:36;;;;;;;0.98;0.90;;;21.80;59.20;;;;;;5053829;28;20206;-68
2022/07/02 02:27:04;;;;;;;0.80;0.80;;;21.80;59.20;;;;;;5053878;28;20196;-68
2022/07/02 02:29:32;;;;;;;1.10;1.10;;;21.80;59.20;;;;;;5054632;28;20202;-68
2022/07/02 02:32:00;;;;;;;1.25;1.15;;;21.80;59.20;;;;;;5053749;28;20207;-68
2022/07/02 02:34:27;;;;;;;0.90;0.90;;;21.80;59.20;;;;;;5053816;28;20219;-68
2022/07/02 02:36:54;;;;;;;1.95;1.00;;;21.80;59.20;;;;;;5053852;28;20291;-68
2022/07/02 02:39:21;;;;;;;1.00;1.00;;;21.80;59.30;;;;;;5053933;28;20199;-68
2022/07/02 02:41:48;;;;;;;1.00;1.00;;;21.70;59.30;;;;;;5053458;28;20235;-68
2022/07/02 02:44:15;;;;;;;1.10;1.10;;;21.70;59.80;;;;;;5053625;28;20218;-68
2022/07/02 02:46:43;;;;;;;1.10;1.10;;;21.70;59.20;;;;;;5053381;28;20203;-68
2022/07/02 02:49:11;;;;;;;1.10;1.00;;;21.70;59.30;;;;;;5054227;28;20200;-68
2022/07/02 02:51:39;;;;;;;0.90;0.90;;;21.70;59.30;;;;;;5054175;28;20226;-68
2022/07/02 02:54:06;;;;;;;1.00;1.00;;;21.70;59.30;;;;;;5053061;28;20215;-68
2022/07/02 02:56:33;;;;;;;0.93;0.93;;;21.70;59.30;;;;;;5054319;28;20187;-68
2022/07/02 02:59:01;;;;;;;0.95;0.90;;;21.70;59.30;;;;;;5053182;28;20680;-68
2022/07/02 03:01:28;;;;;;;1.27;1.10;;;21.70;59.30;;;;;;5054289;28;20290;-68
2022/07/02 03:03:58;;;;;;;1.15;1.05;;;21.70;59.30;;;;;;5069909;28;20696;-68
2022/07/02 03:06:25;;;;;;;1.13;1.00;;;21.70;59.30;;;;;;5070299;28;20199;-68
2022/07/02 03:08:52;;;;;;;1.20;1.10;;;21.70;59.30;;;;;;5053368;28;20200;-68
2022/07/02 03:11:19;;;;;;;1.10;1.10;;;21.70;59.30;;;;;;5053147;28;20191;-68
2022/07/02 03:13:46;;;;;;;0.88;0.88;;;21.70;59.30;;;;;;5053211;28;20222;-69
2022/07/02 03:16:12;;;;;;;1.10;1.10;;;21.70;59.30;;;;;;5055116;28;20675;-67
2022/07/02 03:18:39;;;;;;;0.85;0.85;;;21.70;59.20;;;;;;5053349;28;20207;-68
2022/07/02 03:21:07;;;;;;;1.23;1.13;;;21.70;59.10;;;;;;5053000;28;20699;-68
2022/07/02 03:23:34;;;;;;;0.90;0.90;;;21.70;59.10;;;;;;5052993;28;20227;-68
2022/07/02 03:26:01;;;;;;;0.90;0.90;;;21.70;59.10;;;;;;5053165;28;20665;-68
2022/07/02 03:28:28;;;;;;;0.93;0.93;;;21.70;59.10;;;;;;5054177;28;20195;-68
2022/07/02 03:30:56;;;;;;;1.02;1.00;;;21.70;59.10;;;;;;5054367;28;20641;-68
2022/07/02 03:33:23;;;;;;;1.20;1.10;;;21.70;59.50;;;;;;5059058;28;20219;-69
2022/07/02 03:35:50;;;;;;;1.08;1.00;;;21.70;58.90;;;;;;5052852;28;20657;-68
2022/07/02 03:38:18;;;;;;;0.90;0.90;;;21.70;58.90;;;;;;5069639;28;20200;-68
2022/07/02 03:40:45;;;;;;;0.80;0.80;;;21.80;59.10;;;;;;5053498;28;20192;-69
2022/07/02 03:43:12;;;;;;;1.00;1.00;;;21.70;58.90;;;;;;5069384;28;20284;-69
2022/07/02 03:45:39;;;;;;;2.45;1.10;;;21.70;58.90;;;;;;5052756;28;20199;-68
2022/07/02 03:48:06;;;;;;;0.75;0.75;;;21.70;58.90;;;;;;5053995;28;20191;-68
2022/07/02 03:50:37;;;;;;;1.13;1.02;;;21.80;58.90;;;;;;5069321;28;20202;-69
2022/07/02 03:53:04;;;;;;;0.85;0.85;;;21.70;58.80;;;;;;5053807;28;20303;-69
2022/07/02 03:55:33;;;;;;;1.20;1.10;;;21.80;58.90;;;;;;5056403;28;20274;-68
2022/07/02 03:58:00;;;;;;;2.45;1.02;;;21.80;58.90;;;;;;5055149;28;20223;-69
2022/07/02 04:00:28;;;;;;;1.15;0.90;;;21.80;58.80;;;;;;5053563;28;20202;-69
2022/07/02 04:02:55;;;;;;;0.80;0.80;;;21.70;58.70;;;;;;5053762;28;20740;-69
2022/07/02 04:05:22;;;;;;;1.00;1.00;;;21.80;58.80;;;;;;5069844;28;20203;-68
2022/07/02 04:07:49;;;;;;;0.80;0.80;;;21.80;58.80;;;;;;5052931;28;20680;-68
2022/07/02 04:10:16;;;;;;;1.02;1.02;;;21.80;58.80;;;;;;5053720;28;20187;-68
2022/07/02 04:12:45;;;;;;;0.90;0.90;;;21.80;58.80;;;;;;5053166;28;20273;-68
2022/07/02 04:15:12;;;;;;;0.90;0.90;;;21.80;58.70;;;;;;5053266;28;20218;-68
2022/07/02 04:17:39;;;;;;;0.73;0.73;;;21.80;58.70;;;;;;5052710;28;20204;-68
2022/07/02 04:20:07;;;;;;;0.90;0.90;;;21.80;58.70;;;;;;5052408;28;20192;-68
2022/07/02 04:22:33;;;;;;;1.02;1.00;;;21.80;58.60;;;;;;5054562;28;20271;-68
2022/07/02 04:25:01;;;;;;;1.27;0.80;;;21.80;58.60;;;;;;5053144;28;20218;-68
2022/07/02 04:27:28;;;;;;;1.00;1.00;;;21.80;58.60;;;;;;5052667;28;20199;-68
2022/07/02 04:29:57;;;;;;;1.00;1.00;;;21.90;58.60;;;;;;5053272;28;20210;-68
2022/07/02 04:32:24;;;;;;;0.90;0.90;;;21.90;58.50;;;;;;5053580;28;20213;-68
2022/07/02 04:34:51;;;;;;;1.65;0.90;;;21.90;58.50;;;;;;5052512;28;20283;-69
2022/07/02 04:37:18;;;;;;;1.00;0.90;;;21.90;58.40;;;;;;5052646;28;20204;-68
2022/07/02 04:39:45;;;;;;;0.90;0.90;;;21.90;58.40;;;;;;5052733;28;20207;-68
2022/07/02 04:42:12;;;;;;;0.70;0.70;;;21.90;58.30;;;;;;5052001;28;20598;-68
2022/07/02 04:44:40;;;;;;;1.00;0.90;;;22.00;58.40;;;;;;5053587;28;20199;-68
2022/07/02 04:47:08;;;;;;;0.98;0.90;;;22.00;58.30;;;;;;5052903;28;20198;-69
2022/07/02 04:49:35;;;;;;;1.00;1.00;;;22.10;58.00;;;;;;5053899;28;20188;-68
2022/07/02 04:52:02;;;;;;;1.13;0.90;;;22.30;57.50;;;;;;5055255;28;20191;-68
2022/07/02 04:54:29;;;;;;;2.35;1.10;;;22.50;56.90;;;;;;5073547;28;20206;-68
2022/07/02 04:56:56;;;;;;;0.88;0.88;;;22.80;56.60;;;;;;5057616;28;20329;-68
2022/07/02 04:59:23;;;;;;;1.17;1.08;;;23.00;56.00;;;;;;5072391;28;20660;-68
2022/07/02 05:01:51;;;;;;;1.00;1.00;;;23.20;55.50;;;;;;5055581;28;20683;-68
2022/07/02 05:04:19;;;;;;;1.02;0.90;;;23.30;54.90;;;;;;5056989;28;20225;-68
2022/07/02 05:06:46;;;;;;;0.80;0.80;;;23.50;54.60;;;;;;5072173;28;20241;-68
2022/07/02 05:09:13;;;;;;;1.15;1.10;;;23.70;54.20;;;;;;5057360;28;20246;-68
2022/07/02 05:11:40;;;;;;;0.88;0.88;;;23.90;53.80;;;;;;5055401;28;20199;-68
2022/07/02 05:14:07;;;;;;;0.90;0.90;;;24.00;53.40;;;;;;5055874;28;20223;-68
2022/07/02 05:16:34;;;;;;;0.70;0.70;;;24.20;53.30;;;;;;5056564;28;20664;-68
2022/07/02 05:19:02;;;;;;;1.98;0.90;;;24.30;52.90;;;;;;5056328;28;20188;-68
2022/07/02 05:21:30;;;;;;;0.93;0.93;;;24.40;52.60;;;;;;5072090;28;20660;-68
2022/07/02 05:23:57;;;;;;;0.88;0.88;;;24.50;52.40;;;;;;5055178;28;20227;-68
2022/07/02 05:26:24;;;;;;;1.02;0.93;;;24.60;52.10;;;;;;5055015;28;20219;-68
2022/07/02 05:28:51;;;;;;;1.17;0.98;;;24.70;51.90;;;;;;5054763;28;20329;-68
2022/07/02 05:31:18;;;;;;;1.35;0.93;;;24.80;51.70;;;;;;5056644;28;20204;-69
2022/07/02 05:33:45;;;;;;;1.27;1.10;;;24.90;51.50;;;;;;5055669;28;20224;-68
2022/07/02 05:36:12;;;;;;;1.00;1.00;;;25.00;51.30;;;;;;5072263;28;20630;-69
2022/07/02 05:38:41;;;;;;;0.80;0.80;;;25.10;51.20;;;;;;5054988;28;20211;-68
2022/07/02 05:41:08;;;;;;;0.80;0.80;;;25.20;51.00;;;;;;5056108;28;20191;-68
2022/07/02 05:43:36;;;;;;;0.82;0.82;;;25.30;50.80;;;;;;5054878;28;20223;-68
2022/07/02 05:46:02;;;;;;;1.10;1.00;;;25.30;50.50;;;;;;5056142;28;20187;-68
2022/07/02 05:48:30;;;;;;;1.30;0.82;;;25.40;50.30;;;;;;5054515;28;20261;-68
2022/07/02 05:50:56;;;;;;;0.90;0.90;;;25.50;50.10;;;;;;5054573;28;20664;-68
2022/07/02 05:53:23;;;;;;;0.90;0.80;;;25.60;50.10;;;;;;5054306;28;20238;-68
2022/07/02 05:55:52;;;;;;;0.73;0.73;;;25.60;50.00;;;;;;5055106;28;20204;-68
2022/07/02 05:58:19;;;;;;;1.00;1.00;;;25.70;50.30;;;;;;5054735;28;20666;-68
2022/07/02 06:00:46;;;;;;;1.00;1.00;;;25.80;49.60;;;;;;5070974;28;20234;-68
2022/07/02 06:03:15;;;;;;;0.80;0.80;;;25.80;49.50;;;;;;5053770;28;20318;-67
2022/07/02 06:08:26;;;;;;;1.30;0.95;;;26.00;49.20;;;;;;5054239;28;20197;-68
2022/07/02 06:10:55;;;;;;;1.08;1.00;;;26.00;48.90;;;;;;5054157;28;20235;-68
2022/07/02 06:13:22;;;;;;;0.95;0.80;;;26.10;48.90;;;;;;5054107;28;20211;-68
2022/07/02 06:15:48;;;;;;;0.85;0.85;;;26.10;48.70;;;;;;5070741;28;20257;-68
2022/07/02 06:18:15;;;;;;;1.10;1.00;;;26.20;48.70;;;;;;5054139;28;20277;-68
2022/07/02 06:20:43;;;;;;;0.88;0.88;;;26.20;48.50;;;;;;5053911;28;20245;-68
2022/07/02 06:23:10;;;;;;;1.42;0.90;;;26.30;48.30;;;;;;5055077;28;20218;-66
2022/07/02 06:25:36;;;;;;;0.82;0.80;;;26.40;48.20;;;;;;5053983;28;20206;-68
2022/07/02 06:28:05;;;;;;;0.80;0.80;;;26.40;48.00;;;;;;5054027;28;20199;-68
2022/07/02 06:30:32;;;;;;;0.85;0.85;;;26.50;47.90;;;;;;5054143;28;20205;-68
2022/07/02 06:32:59;;;;;;;0.85;0.85;;;26.60;47.70;;;;;;5054202;28;20215;-68
2022/07/02 06:35:26;;;;;;;0.85;0.85;;;26.70;47.50;;;;;;5054656;28;20574;-68
2022/07/02 06:37:53;;;;;;;0.77;0.77;;;26.70;47.40;;;;;;5054906;28;20190;-68
2022/07/02 06:40:20;;;;;;;0.90;0.90;;;26.80;47.30;;;;;;5070415;28;20629;-68
2022/07/02 06:42:47;;;;;;;1.50;1.00;;;26.90;47.20;;;;;;5053350;28;20694;-68
2022/07/02 06:45:15;;;;;;;0.90;0.90;;;26.90;47.00;;;;;;5053469;28;20248;-68
2022/07/02 06:47:43;;;;;;;0.80;0.80;;;27.00;46.90;;;;;;5054769;28;20562;-68
2022/07/02 06:50:10;;;;;;;0.80;0.80;;;27.10;46.80;;;;;;5053533;28;20202;-68
2022/07/02 06:52:37;;;;;;;0.95;0.90;;;27.10;46.60;;;;;;5053150;28;20225;-69
2022/07/02 06:55:04;;;;;;;0.90;0.85;;;27.20;46.60;;;;;;5069852;28;20552;-68
2022/07/02 06:57:32;;;;;;;1.00;1.00;;;27.20;46.50;;;;;;5053304;28;20289;-68
2022/07/02 06:59:59;;;;;;;0.85;0.70;;;27.20;46.20;;;;;;5054730;28;20190;-68
2022/07/02 07:02:28;;;;;;;1.02;0.82;;;27.30;46.20;;;;;;5052721;28;20221;-68
2022/07/02 07:04:55;;;;;;;0.90;0.90;;;27.30;46.00;;;;;;5053041;28;20226;-68
2022/07/02 07:07:26;;;;;;;0.80;0.80;;;27.40;46.00;;;;;;5069769;28;20199;-68
2022/07/02 07:09:54;;;;;;;0.80;0.80;;;27.50;45.80;;;;;;5052942;28;20206;-68
2022/07/02 07:12:21;;;;;;;0.68;0.68;;;27.50;45.70;;;;;;5069470;28;20644;-68
2022/07/02 07:14:48;;;;;;;1.10;1.00;;;27.60;45.70;;;;;;5068616;28;20195;-68
2022/07/02 07:17:16;;;;;;;0.70;0.70;;;27.60;45.50;;;;;;5052892;28;20208;-68
2022/07/02 07:19:44;;;;;;;0.73;0.73;;;27.70;45.40;;;;;;5053399;28;20198;-68
2022/07/02 07:22:11;;;;;;;0.93;0.90;;;27.70;45.30;;;;;;5052930;28;20201;-68
2022/07/02 07:24:38;;;;;;;0.90;0.90;;;27.70;45.10;;;;;;5053908;28;20264;-68
2022/07/02 07:27:06;;;;;;;0.73;0.73;;;27.80;45.10;;;;;;5052893;28;20218;-68
2022/07/02 07:29:35;;;;;;;0.75;0.75;;;27.80;44.90;;;;;;5052618;28;20199;-68
2022/07/02 07:32:02;;;;;;;0.70;0.70;;;27.90;44.90;;;;;;5052560;28;20198;-68
2022/07/02 07:34:29;;;;;;;0.65;0.65;;;27.90;44.70;;;;;;5069162;28;20282;-68
2022/07/02 07:36:58;;;;;;;0.90;0.68;;;27.90;44.70;;;;;;5054089;28;20607;-68
2022/07/02 07:39:25;;;;;;;0.90;0.90;;;28.00;44.50;;;;;;5052567;28;20216;-69
2022/07/02 07:41:53;;;;;;;0.80;0.80;;;28.00;44.30;;;;;;5052800;28;20198;-68
2022/07/02 07:44:20;;;;;;;1.10;0.95;;;28.10;44.40;;;;;;5052607;28;20252;-68
2022/07/02 07:46:47;;;;;;;0.90;0.90;;;28.00;43.30;;;;;;5052443;28;20199;-68
2022/07/02 07:49:15;;;;;;;1.27;0.75;;;27.90;43.60;;;;;;5054096;28;20197;-68
2022/07/02 07:51:42;;;;;;;0.70;0.70;;;27.80;43.40;;;;;;5052825;28;20230;-68
2022/07/02 07:54:10;;;;;;;1.92;1.00;;;27.70;43.90;;;;;;5053572;28;20301;-67
2022/07/02 07:56:41;;;;;;;2.22;1.02;;;27.60;44.50;;;;;;5053196;28;20291;-68
2022/07/02 07:59:08;;;;;;;1.88;0.98;;;27.60;44.20;;;;;;5053742;28;20198;-68
2022/07/02 08:01:35;;;;;;;0.90;0.90;;;27.50;44.30;;;;;;5053577;28;20195;-69
2022/07/02 08:04:02;;;;;;;1.13;0.90;;;27.40;44.60;;;;;;5054914;28;20226;-68
2022/07/02 08:06:29;;;;;;;0.90;0.82;;;27.10;43.50;;;;;;5075362;28;20197;-69
2022/07/02 08:08:57;;;;;;;1.98;0.90;;;27.20;42.90;;;;;;5058724;28;20270;-68
2022/07/02 08:11:25;;;;;;;1.27;1.05;;;27.10;43.20;;;;;;5060074;28;20198;-69
2022/07/02 08:13:52;;;;;;;19.85;7.40;;;26.90;43.30;;;;;;5056090;28;20206;-68
2022/07/02 08:16:19;;;;;;;21.80;9.35;;;26.90;43.80;;;;;;5069908;28;20199;-68
2022/07/02 08:18:46;;;;;;;24.38;10.40;;;26.90;43.90;;;;;;5052278;28;20205;-68
2022/07/02 08:21:13;;;;;;;9.50;4.43;;;26.80;43.30;;;;;;5052139;28;20199;-69
2022/07/02 08:23:40;;;;;;;7.32;3.90;;;26.90;43.50;;;;;;5053097;28;20218;-69
2022/07/02 08:26:07;;;;;;;3.13;1.98;;;26.90;43.50;;;;;;5069565;28;20204;-67
2022/07/02 08:28:35;;;;;;;4.30;1.90;;;26.80;43.20;;;;;;5057606;28;20582;-68
2022/07/02 08:31:02;;;;;;;1.63;1.23;;;26.90;43.30;;;;;;5073191;28;20233;-69
2022/07/02 08:33:29;;;;;;;1.83;1.20;;;26.80;43.40;;;;;;5056041;28;20221;-69
2022/07/02 08:35:56;;;;;;;0.93;0.90;;;26.80;43.10;;;;;;5073493;28;20298;-69
2022/07/02 08:38:23;;;;;;;1.95;0.90;;;26.80;43.90;;;;;;5056125;28;20199;-68
2022/07/02 08:40:50;;;;;;;1.95;1.10;;;26.70;42.80;;;;;;5072649;28;20626;-68
2022/07/02 08:43:17;;;;;;;1.58;0.85;;;26.80;43.10;;;;;;5057281;28;20706;-69
2022/07/02 08:45:46;;;;;;;0.75;0.75;;;27.10;42.50;;;;;;5056024;28;20205;-69
2022/07/02 08:48:13;;;;;;;1.05;0.98;;;27.20;41.30;;;;;;5073266;28;20568;-68
2022/07/02 08:50:41;;;;;;;0.93;0.80;;;27.20;41.00;;;;;;5072275;28;20190;-69
2022/07/02 08:53:07;;;;;;;1.83;0.80;;;27.30;41.50;;;;;;5072535;28;20211;-69
2022/07/02 08:55:35;;;;;;;1.13;1.00;;;27.30;41.00;;;;;;5055714;28;20555;-68
2022/07/02 08:58:02;;;;;;;1.50;1.08;;;27.30;40.70;;;;;;5055618;28;20198;-66
2022/07/02 09:00:29;;;;;;;0.85;0.85;;;27.50;40.00;;;;;;5056884;28;20225;-69
2022/07/02 09:02:58;;;;;;;1.38;1.30;;;27.40;40.30;;;;;;5057491;28;20214;-68
2022/07/02 09:05:25;;;;;;;1.58;1.23;;;27.40;41.10;;;;;;5057016;28;20248;-68
2022/07/02 09:07:52;;;;;;;0.93;0.80;;;27.30;40.00;;;;;;5056104;28;20194;-69
2022/07/02 09:10:20;;;;;;;1.38;1.10;;;27.30;39.10;;;;;;5074231;28;20648;-69
2022/07/02 09:12:47;;;;;;;0.80;0.80;;;27.30;39.80;;;;;;5056341;28;20218;-69
2022/07/02 09:15:14;;;;;;;0.90;0.90;;;27.30;39.70;;;;;;5056506;28;20190;-69
2022/07/02 09:17:42;;;;;;;2.45;0.90;;;27.20;39.80;;;;;;5056137;28;20209;-68
2022/07/02 09:20:11;;;;;;;1.95;1.02;;;27.30;40.40;;;;;;5055818;28;20222;-68
2022/07/02 09:22:40;;;;;;;4.78;1.00;;;27.30;40.80;;;;;;5057741;28;20207;-68
2022/07/02 09:25:09;;;;;;;1.73;1.02;;;27.20;41.40;;;;;;5055806;28;20225;-68
2022/07/02 09:27:37;;;;;;;1.75;1.10;;;27.30;41.20;;;;;;5056698;28;20230;-68
2022/07/02 09:30:05;;;;;;;1.00;0.70;;;27.20;40.70;;;;;;5054837;28;20190;-68
2022/07/02 09:32:38;;;;;;;2.05;1.00;;;27.20;40.10;;;;;;5072208;28;20219;-69
2022/07/02 09:35:06;;;;;;;2.42;0.88;;;27.30;40.20;;;;;;5071629;28;20557;-69
2022/07/02 09:37:35;;;;;;;0.93;0.80;;;27.20;41.50;;;;;;5054021;28;20260;-69
2022/07/02 09:40:03;;;;;;;1.58;0.80;;;27.30;40.80;;;;;;5054859;28;20218;-68
2022/07/02 09:42:32;;;;;;;1.30;0.90;;;27.20;40.70;;;;;;5071978;28;20250;-70
2022/07/02 09:44:59;;;;;;;0.88;0.85;;;27.30;40.80;;;;;;5054794;28;20222;-68
2022/07/02 09:47:31;;;;;;;1.08;0.70;;;27.40;40.90;;;;;;5055441;28;20248;-65
2022/07/02 09:50:01;;;;;;;1.75;0.95;;;27.50;40.50;;;;;;5055197;28;20206;-66
2022/07/02 09:52:28;;;;;;;0.82;0.82;;;27.40;40.30;;;;;;5071575;28;20214;-66
2022/07/02 09:54:57;;;;;;;2.17;0.90;;;27.50;39.90;;;;;;5056293;28;20193;-66
2022/07/02 09:57:24;;;;;;;1.10;0.80;;;27.50;39.70;;;;;;5071896;28;20229;-66
2022/07/02 09:59:51;;;;;;;1.50;0.80;;;27.50;39.00;;;;;;5054394;28;20290;-65
2022/07/02 10:02:22;;;;;;;1.08;0.75;;;27.40;39.20;;;;;;5056214;28;20277;-65
2022/07/02 10:04:51;;;;;;;1.25;1.10;;;27.40;38.60;;;;;;5054680;28;20240;-66
2022/07/02 10:07:19;;;;;;;0.70;0.70;;;27.40;38.70;;;;;;5054534;28;20237;-65
2022/07/02 10:09:46;;;;;;;0.70;0.70;;;27.50;38.60;;;;;;5071075;28;20194;-68
2022/07/02 10:12:14;;;;;;;2.92;0.70;;;27.50;38.10;;;;;;5054321;28;20206;-69
2022/07/02 10:14:42;;;;;;;0.68;0.68;;;27.40;37.50;;;;;;5055722;28;20179;-65
2022/07/02 10:17:10;;;;;;;1.02;0.90;;;27.40;37.00;;;;;;5054091;28;20559;-66
2022/07/02 10:19:36;;;;;;;0.60;0.60;;;27.40;37.80;;;;;;5054164;28;20249;-66
2022/07/02 10:22:04;;;;;;;1.02;0.80;;;27.30;38.10;;;;;;5053743;28;20201;-65
2022/07/02 10:24:30;;;;;;;1.08;0.80;;;27.20;38.40;;;;;;5053890;28;20223;-66
2022/07/02 10:26:57;;;;;;;1.20;0.70;;;27.20;38.20;;;;;;5054062;28;20660;-66
2022/07/02 10:29:26;;;;;;;0.88;0.82;;;27.20;38.30;;;;;;5055308;28;20202;-67
2022/07/02 10:31:57;;;;;;;0.68;0.68;;;27.30;39.70;;;;;;5053690;28;20199;-68
2022/07/02 10:34:32;;;;;;;0.95;0.85;;;27.30;39.10;;;;;;5053638;28;20391;-67
2022/07/02 10:36:59;;;;;;;0.70;0.60;;;27.20;37.30;;;;;;5053823;28;20574;-67
2022/07/02 10:39:26;;;;;;;1.33;0.77;;;27.20;36.80;;;;;;5053841;28;20629;-67
2022/07/02 10:41:54;;;;;;;0.60;0.60;;;27.20;37.20;;;;;;5055205;28;20274;-68
2022/07/02 10:44:21;;;;;;;0.80;0.80;;;27.10;36.50;;;;;;5068965;28;20222;-68
2022/07/02 10:46:49;;;;;;;0.82;0.70;;;27.10;36.80;;;;;;5055155;28;20666;-67
2022/07/02 10:49:24;;;;;;;0.65;0.65;;;27.10;37.00;;;;;;5054643;28;20191;-67
2022/07/02 10:51:54;;;;;;;0.85;0.80;;;27.00;36.70;;;;;;5054815;28;20221;-67
2022/07/02 10:54:21;;;;;;;0.60;0.60;;;27.00;37.30;;;;;;5054027;28;20215;-68
2022/07/02 10:56:49;;;;;;;0.90;0.73;;;27.00;38.00;;;;;;5053535;28;20202;-67
2022/07/02 10:59:22;;;;;;;0.80;0.80;;;27.00;38.40;;;;;;5069813;28;20660;-67
2022/07/02 11:02:01;;;;;;;0.80;0.77;;;27.00;38.70;;;;;;5069720;28;20294;-68
2022/07/02 11:04:29;;;;;;;0.85;0.70;;;27.00;38.90;;;;;;5053245;28;20233;-67
2022/07/02 11:07:04;;;;;;;0.93;0.50;;;26.90;39.10;;;;;;5069984;28;20190;-67
2022/07/02 11:09:32;;;;;;;0.68;0.68;;;26.90;39.30;;;;;;5070166;28;20201;-69
2022/07/02 11:12:00;;;;;;;2.03;0.68;;;26.90;39.60;;;;;;5054277;28;20729;-67
2022/07/02 11:14:28;;;;;;;1.30;0.90;;;26.90;39.90;;;;;;5052906;28;20569;-67
2022/07/02 11:16:57;;;;;;;0.70;0.70;;;26.90;40.00;;;;;;5052851;28;20260;-67
2022/07/02 11:19:26;;;;;;;0.93;0.80;;;26.90;40.30;;;;;;5055481;28;20592;-68
2022/07/02 11:21:54;;;;;;;2.15;0.57;;;26.80;40.80;;;;;;5069843;28;20252;-67
2022/07/02 11:24:22;;;;;;;1.20;0.80;;;26.80;41.30;;;;;;5052575;28;20280;-67
2022/07/02 11:26:49;;;;;;;0.70;0.60;;;26.80;41.20;;;;;;5053986;28;20195;-67
2022/07/02 11:29:16;;;;;;;2.13;0.93;;;26.80;41.20;;;;;;5073660;28;20199;-68
2022/07/02 11:31:46;;;;;;;0.85;0.73;;;26.60;41.20;;;;;;5069430;28;20680;-67
2022/07/02 11:34:14;;;;;;;0.70;0.70;;;26.60;41.60;;;;;;5069352;28;20218;-68
2022/07/02 11:36:41;;;;;;;0.82;0.70;;;26.60;41.90;;;;;;5069236;28;20203;-68
2022/07/02 11:39:09;;;;;;;0.70;0.70;;;26.60;42.10;;;;;;5053994;28;20197;-69
2022/07/02 11:41:36;;;;;;;1.52;0.82;;;26.60;41.80;;;;;;5053707;28;20195;-68
2022/07/02 11:44:13;;;;;;;1.10;0.80;;;26.60;41.70;;;;;;5053597;28;20206;-68
2022/07/02 11:46:41;;;;;;;0.75;0.75;;;26.60;41.80;;;;;;5054019;28;20171;-68
2022/07/02 11:49:15;;;;;;;1.08;0.65;;;26.60;41.60;;;;;;5053720;28;20182;-68
2022/07/02 11:51:44;;;;;;;0.60;0.60;;;26.50;41.70;;;;;;5069061;28;20721;-68
2022/07/02 11:54:11;;;;;;;1.00;0.90;;;26.50;41.50;;;;;;5069096;28;20218;-68
2022/07/02 11:56:39;;;;;;;0.80;0.80;;;26.50;40.90;;;;;;5052925;28;20191;-68
2022/07/02 11:59:08;;;;;;;2.13;0.98;;;26.50;41.40;;;;;;5053029;28;20186;-68
2022/07/02 12:01:35;;;;;;;1.05;0.90;;;26.50;41.30;;;;;;5078011;22;20223;-76
2022/07/02 12:04:03;;;;;;;1.40;0.73;;;26.50;41.30;;;;;;5052130;28;20198;-76
2022/07/02 12:06:33;;;;;;;1.77;0.73;;;26.50;41.60;;;;;;5053391;28;20190;-76
2022/07/02 12:09:00;;;;;;;0.77;0.77;;;26.50;41.80;;;;;;5053465;28;20659;-77
2022/07/02 12:11:27;;;;;;;0.73;0.70;;;26.40;41.50;;;;;;5052160;28;20297;-77
2022/07/02 12:13:55;;;;;;;0.88;0.88;;;26.40;41.50;;;;;;5068970;28;20233;-76
2022/07/02 12:16:23;;;;;;;1.63;0.85;;;26.40;41.50;;;;;;5053404;28;20214;-77
2022/07/02 12:21:43;;;;;;;0.85;0.85;;;26.40;42.00;;;;;;5079568;28;20714;-73
2022/07/02 12:24:19;;;;;;;0.77;0.77;;;26.40;42.10;;;;;;5203227;22;20709;-74
2022/07/02 12:26:46;;;;;;;1.10;0.90;;;26.30;41.90;;;;;;5052063;28;20187;-75
2022/07/02 12:34:41;;;;;;;2.03;0.93;;;26.30;42.40;;;;;;5111329;22;20226;-74
2022/07/02 12:37:11;;;;;;;1.08;0.98;;;26.30;42.50;;;;;;5052130;28;20198;-74
2022/07/02 12:39:40;;;;;;;0.80;0.68;;;26.30;42.70;;;;;;5239792;22;20341;-73
2022/07/02 12:42:15;;;;;;;2.40;0.90;;;26.20;42.90;;;;;;5259721;22;20280;-73
2022/07/02 12:44:51;;;;;;;2.03;1.10;;;26.30;42.80;;;;;;5214795;22;20226;-73
2022/07/02 12:47:26;;;;;;;1.13;0.70;;;26.20;43.00;;;;;;5051896;28;20654;-74
2022/07/02 12:49:54;;;;;;;1.75;0.70;;;26.30;43.30;;;;;;5051690;28;20277;-73
2022/07/02 12:52:23;;;;;;;2.22;1.00;;;26.20;43.40;;;;;;5051769;28;20222;-73
2022/07/02 12:54:50;;;;;;;2.13;0.77;;;26.20;43.50;;;;;;5051751;28;20573;-73
2022/07/02 12:57:18;;;;;;;1.02;0.82;;;26.20;43.70;;;;;;5051674;28;20199;-73
2022/07/02 12:59:46;;;;;;;1.35;1.00;;;26.20;43.80;;;;;;5053092;28;20190;-73
2022/07/02 13:02:18;;;;;;;2.35;0.80;;;26.10;43.90;;;;;;5053220;28;20211;-74